West Bridgewater, Pennsylvania
Current Conditions -  °F | °C
As of 9:47 AM on Wednesday 26 Nov 2014 (Local Time) from KBVI Reporting Station
Overcast Overcast  
Wind Chill: 32°   Ceiling: 7000
Heat Index: 32°   Visibility: 10mi
Dew Point: 27°   Wind: 0mph
Humidity: 80%   Direction: NA
Pressure: 30.07"   Gusts: NA
Location:  40.7011°N, 80.3605°W
Report Text: KBVI 261447Z 00000KT 10SM OVC070 M00/M03 A3007
Loading
Personal Weather Stations






























Interactive Weather Map New forecast layout! Learn more

10-Day Weather Forecast

Advertisements
Track Severe Weather on mobile